Terminal Aerodrome Forecast
Issued by NWS

Home | Current Version | Previous Version | Text Only | Print | Product List | Glossary On
Versions: 1 2 3 4 5 6 7 8 9 10 11 12 13 14 15 16 17 18 19 20 21 22
000
FTUS41 KBOX 291120
TAFACK
TAF
KACK 291120Z 2912/3012 23010KT P6SM SCT070
     FM291400 25010G17KT P6SM SCT250
     FM292100 22009KT P6SM BKN100
     FM292300 20007KT 4SM BR BKN110
     FM300300 19008KT 1 1/2SM BR VCSH BKN008
     FM300900 20010KT 1/2SM -SHRA FG OVC008=

USA.gov is the U.S. government's official web portal to all federal, state and local government web resources and services.